Time;durP1;ratioP1;P1;durP2;ratioP2;P2;SDS_P1;SDS_P2;PMS_P1;PMS_P2;Temp;Humidity;BMP_temperature;BMP_pressure;BME280_temperature;BME280_humidity;BME280_pressure;Samples;Min_cycle;Max_cycle;Signal;HPM_P1;HPM_P2
2023/05/24 00:00:22;;;;;;;3.77;2.77;;;14.20;99.90;;;14.49;69.73;101107.25;5014141;28;21024;-69
2023/05/24 00:02:49;;;;;;;5.40;2.97;;;14.30;99.90;;;14.50;69.15;101104.47;5011640;28;20632;-67
2023/05/24 00:05:17;;;;;;;3.33;3.03;;;14.20;99.90;;;14.49;69.48;101102.84;5010604;28;21177;-67
2023/05/24 00:07:44;;;;;;;2.73;2.53;;;14.20;99.90;;;14.45;69.46;101103.19;5017066;28;20696;-67
2023/05/24 00:10:11;;;;;;;3.73;2.60;;;14.20;99.90;;;14.42;69.40;101103.44;5029639;28;20644;-68
2023/05/24 00:12:38;;;;;;;3.00;2.80;;;14.10;99.90;;;14.40;69.90;101098.31;5027218;28;21329;-68
2023/05/24 00:15:06;;;;;;;2.67;2.47;;;14.10;99.90;;;14.37;69.65;101097.75;5030033;28;20625;-67
2023/05/24 00:17:39;;;;;;;3.20;2.90;;;14.10;99.90;;;14.33;69.83;101091.06;5024962;28;21132;-67
2023/05/24 00:20:10;;;;;;;5.30;3.00;;;14.00;99.90;;;14.32;70.21;101094.63;5027260;28;20653;-68
2023/05/24 00:22:38;;;;;;;2.53;2.33;;;14.00;99.90;;;14.27;70.40;101094.97;5028990;28;20596;-67
2023/05/24 00:25:06;;;;;;;3.27;2.70;;;14.00;99.90;;;14.22;70.35;101091.06;5029774;28;20664;-67
2023/05/24 00:27:35;;;;;;;3.93;2.80;;;14.00;99.90;;;14.18;70.13;101093.09;5023030;28;20644;-69
2023/05/24 00:30:05;;;;;;;3.43;2.90;;;13.90;99.90;;;14.14;70.42;101093.47;5026904;28;20747;-69
2023/05/24 00:32:32;;;;;;;2.63;2.43;;;13.90;99.90;;;14.13;70.66;101090.00;5016627;28;20628;-67
2023/05/24 00:34:59;;;;;;;3.20;3.00;;;13.90;99.90;;;14.12;70.58;101079.63;5029328;28;20634;-68
2023/05/24 00:37:26;;;;;;;2.80;2.60;;;13.90;99.90;;;14.09;70.47;101085.09;5017658;28;21406;-68
2023/05/24 00:39:53;;;;;;;3.20;2.80;;;13.80;99.90;;;14.04;70.98;101074.97;5023931;28;20713;-67
2023/05/24 00:42:20;;;;;;;3.67;2.50;;;13.80;99.90;;;14.05;70.48;101070.56;5014624;28;20723;-66
2023/05/24 00:44:47;;;;;;;3.10;2.80;;;13.80;99.90;;;14.06;70.28;101073.06;5029335;28;20591;-67
2023/05/24 00:47:15;;;;;;;2.93;2.53;;;13.80;99.90;;;14.06;70.52;101070.44;5012528;28;20688;-67
2023/05/24 00:49:42;;;;;;;2.27;2.07;;;13.80;99.90;;;14.05;70.25;101073.19;5020334;28;20649;-66
2023/05/24 00:52:09;;;;;;;2.77;2.53;;;13.70;99.90;;;14.05;70.28;101066.16;5008667;28;20748;-69
2023/05/24 00:54:37;;;;;;;4.20;3.07;;;13.80;99.90;;;14.02;70.03;101063.75;5013078;28;20633;-67
2023/05/24 00:57:04;;;;;;;3.40;2.10;;;13.70;99.90;;;14.06;69.51;101064.34;5027690;28;21580;-68
2023/05/24 00:59:31;;;;;;;2.90;2.00;;;13.80;99.90;;;14.01;69.33;101054.25;5028087;28;20747;-70
2023/05/24 01:01:58;;;;;;;2.93;2.63;;;13.80;99.90;;;14.00;70.05;101063.06;5018977;28;20636;-68
2023/05/24 01:04:26;;;;;;;3.37;2.30;;;13.70;99.90;;;13.95;70.43;101063.41;5018044;28;20620;-69
2023/05/24 01:08:08;;;;;;;3.00;2.17;;;13.70;99.90;;;13.86;70.80;101058.88;5015243;28;21110;-67
2023/05/24 01:10:47;;;;;;;4.30;2.77;;;13.60;99.90;;;13.81;70.82;101066.31;5028408;28;20686;-69
2023/05/24 01:13:28;;;;;;;1.47;1.30;;;13.50;99.90;;;13.76;70.90;101065.81;5007563;28;20645;-67
2023/05/24 01:16:02;;;;;;;1.90;1.80;;;13.50;99.90;;;13.74;71.46;101080.84;5020265;28;21175;-67
2023/05/24 01:18:40;;;;;;;4.00;2.63;;;13.50;99.90;;;13.67;72.06;101077.00;5021151;28;20616;-69
2023/05/24 01:21:58;;;;;;;3.40;2.17;;;13.40;99.90;;;13.65;71.81;101086.78;5011486;28;21166;-69
2023/05/24 01:24:43;;;;;;;2.70;2.40;;;13.40;99.90;;;13.62;71.74;101080.97;5033336;28;20958;-69
2023/05/24 01:27:12;;;;;;;2.70;2.40;;;13.30;99.90;;;13.56;71.79;101082.28;5021671;28;21054;-68
2023/05/24 01:29:39;;;;;;;4.90;2.30;;;13.30;99.90;;;13.54;71.27;101084.19;5029438;28;20652;-68
2023/05/24 01:32:07;;;;;;;4.70;2.30;;;13.30;99.90;;;13.52;71.41;101072.97;5030089;28;21258;-67
2023/05/24 01:34:34;;;;;;;2.30;2.10;;;13.30;99.90;;;13.55;71.65;101079.75;5033034;28;20678;-67
2023/05/24 01:37:01;;;;;;;2.43;2.23;;;13.30;99.90;;;13.53;71.03;101069.41;5044621;28;20614;-67
2023/05/24 01:39:29;;;;;;;2.57;2.37;;;13.30;99.90;;;13.54;70.58;101078.94;5019669;28;20699;-67
2023/05/24 01:42:21;;;;;;;2.70;2.40;;;13.30;99.90;;;13.52;70.43;101077.38;5013046;28;20618;-67
2023/05/24 01:45:17;;;;;;;1.83;1.70;;;13.20;99.90;;;13.41;70.12;101077.38;5013694;28;20668;-69
2023/05/24 01:48:17;;;;;;;3.57;2.47;;;13.20;99.90;;;13.35;70.34;101085.72;5016542;28;21038;-67
2023/05/24 01:50:52;;;;;;;2.70;2.50;;;13.10;99.90;;;13.32;70.31;101094.63;5032797;28;20707;-67
2023/05/24 01:53:21;;;;;;;6.00;2.97;;;13.10;99.90;;;13.28;70.66;101101.06;5016055;28;20617;-67
2023/05/24 01:55:52;;;;;;;4.20;2.80;;;13.00;99.90;;;13.29;70.71;101101.91;5019677;28;20637;-70
2023/05/24 01:58:22;;;;;;;4.07;2.87;;;13.00;99.90;;;13.28;70.31;101100.22;5019489;28;20640;-67
2023/05/24 02:00:50;;;;;;;5.03;2.53;;;13.00;99.90;;;13.23;70.53;101098.78;5019603;28;20621;-68
2023/05/24 02:03:18;;;;;;;3.80;2.70;;;13.00;99.90;;;13.23;70.07;101100.56;5025682;28;20601;-67
2023/05/24 02:05:45;;;;;;;2.30;2.10;;;13.00;99.90;;;13.26;70.36;101096.88;5011329;28;20633;-67
2023/05/24 02:08:12;;;;;;;2.60;2.40;;;13.00;99.90;;;13.28;70.43;101092.34;5017734;28;20639;-70
2023/05/24 02:10:40;;;;;;;3.03;2.43;;;13.00;99.90;;;13.25;70.34;101093.41;5028926;28;21278;-66
2023/05/24 02:13:07;;;;;;;4.60;2.67;;;13.00;99.90;;;13.22;70.29;101097.09;5031216;28;20643;-67
2023/05/24 02:15:34;;;;;;;2.93;2.30;;;13.00;99.90;;;13.21;70.65;101100.69;5032148;28;21170;-69
2023/05/24 02:18:02;;;;;;;1.87;1.77;;;13.00;99.90;;;13.16;70.71;101096.75;5030347;28;20675;-66
2023/05/24 02:20:30;;;;;;;5.97;2.63;;;12.90;99.90;;;13.15;70.62;101095.06;5032211;28;20671;-67
2023/05/24 02:22:57;;;;;;;3.80;2.37;;;12.90;99.90;;;13.14;70.89;101099.47;5022831;28;21061;-66
2023/05/24 02:25:24;;;;;;;2.33;2.20;;;12.90;99.90;;;13.15;71.05;101095.91;5043153;28;20603;-68
2023/05/24 02:27:51;;;;;;;3.10;2.23;;;12.90;99.90;;;13.15;70.21;101100.31;5029665;28;20648;-66
2023/05/24 02:30:18;;;;;;;4.77;2.47;;;12.90;99.90;;;13.13;70.52;101104.84;5046712;28;20705;-67
2023/05/24 02:32:46;;;;;;;5.27;2.80;;;12.90;99.90;;;13.17;69.84;101101.03;5016376;28;20667;-65
2023/05/24 02:35:13;;;;;;;6.37;2.60;;;12.90;99.90;;;13.09;69.81;101100.78;5026062;28;20606;-66
2023/05/24 02:37:40;;;;;;;2.20;1.77;;;12.80;99.90;;;13.09;69.14;101100.78;5013981;28;20691;-67
2023/05/24 02:40:07;;;;;;;3.10;2.00;;;12.80;99.90;;;13.10;69.66;101103.28;5022970;28;21236;-66
2023/05/24 02:42:34;;;;;;;5.20;2.77;;;12.80;99.90;;;13.08;69.28;101099.94;5011456;28;20661;-66
2023/05/24 02:45:03;;;;;;;6.83;2.57;;;12.80;99.90;;;13.07;69.21;101100.06;5011619;28;20647;-66
2023/05/24 02:47:30;;;;;;;1.87;1.77;;;12.80;99.90;;;13.02;69.02;101094.28;5011040;28;20627;-66
2023/05/24 02:49:57;;;;;;;2.93;2.10;;;12.80;99.90;;;12.98;69.87;101090.22;5011712;28;20711;-66
2023/05/24 02:52:24;;;;;;;3.73;2.40;;;12.70;99.90;;;12.99;69.32;101099.78;5017963;28;20660;-66
2023/05/24 02:54:51;;;;;;;2.40;2.10;;;12.70;99.90;;;12.98;69.29;101104.16;5026792;28;21640;-67
2023/05/24 02:57:18;;;;;;;2.43;2.23;;;12.70;99.90;;;12.99;69.81;101091.91;5027980;28;21273;-67
2023/05/24 02:59:45;;;;;;;4.30;1.83;;;12.70;99.90;;;13.00;69.37;101090.94;5008819;28;20691;-67
2023/05/24 03:02:12;;;;;;;4.70;2.43;;;12.70;99.90;;;13.01;68.99;101092.63;5024699;28;20612;-67
2023/05/24 03:04:39;;;;;;;2.40;1.97;;;12.70;99.90;;;12.99;68.76;101095.34;5030871;28;20672;-66
2023/05/24 03:07:06;;;;;;;2.70;2.40;;;12.70;99.90;;;12.98;69.03;101098.09;5014400;28;21189;-65
2023/05/24 03:09:33;;;;;;;2.30;2.10;;;12.70;99.90;;;12.94;69.10;101105.34;5023636;28;20679;-66
2023/05/24 03:12:00;;;;;;;2.67;2.40;;;12.70;99.90;;;12.87;68.80;101096.25;5023148;28;20665;-67
2023/05/24 03:14:27;;;;;;;3.60;2.40;;;12.70;99.90;;;12.84;68.85;101103.53;5010757;28;21104;-66
2023/05/24 03:16:54;;;;;;;6.13;1.77;;;12.60;99.90;;;12.78;69.53;101107.41;5011007;28;20676;-67
2023/05/24 03:19:21;;;;;;;3.90;2.50;;;12.60;99.90;;;12.72;69.03;101107.03;5016452;28;20701;-67
2023/05/24 03:21:48;;;;;;;5.53;1.97;;;12.50;99.90;;;12.65;69.89;101106.63;5031796;28;20639;-67
2023/05/24 03:24:15;;;;;;;3.80;2.60;;;12.50;99.90;;;12.64;69.69;101112.00;5029364;28;20651;-67
2023/05/24 03:26:42;;;;;;;5.10;2.90;;;12.40;99.90;;;12.60;69.43;101100.91;5031258;28;20715;-68
2023/05/24 03:29:09;;;;;;;3.03;1.97;;;12.40;99.90;;;12.61;69.54;101106.97;5028805;28;21258;-66
2023/05/24 03:31:36;;;;;;;2.70;2.30;;;12.40;99.90;;;12.62;68.77;101106.88;5030934;28;20994;-67
2023/05/24 03:34:03;;;;;;;3.90;2.50;;;12.40;99.90;;;12.58;69.23;101108.03;5035014;28;20705;-68
2023/05/24 03:36:31;;;;;;;3.70;2.20;;;12.40;99.90;;;12.52;69.15;101105.88;5045667;28;20632;-69
2023/05/24 03:38:58;;;;;;;3.87;1.97;;;12.30;99.90;;;12.51;69.11;101105.97;5016800;28;20718;-73
2023/05/24 03:41:26;;;;;;;3.17;2.50;;;12.30;99.90;;;12.51;68.88;101098.13;5009806;28;20683;-66
2023/05/24 03:43:53;;;;;;;3.37;2.30;;;12.30;99.90;;;12.45;69.57;101104.63;5014264;28;21193;-67
2023/05/24 03:46:20;;;;;;;4.50;2.27;;;12.20;99.90;;;12.44;69.81;101106.41;5021618;28;20728;-66
2023/05/24 03:48:48;;;;;;;2.77;2.53;;;12.20;99.90;;;12.39;70.29;101094.63;5024548;28;20676;-67
2023/05/24 03:51:17;;;;;;;4.10;2.53;;;12.20;99.90;;;12.38;69.96;101106.84;5030322;28;20640;-67
2023/05/24 03:53:44;;;;;;;2.10;1.60;;;12.20;99.90;;;12.36;69.42;101103.53;5029183;28;20660;-68
2023/05/24 03:56:11;;;;;;;2.40;1.23;;;12.10;99.90;;;12.36;69.49;101103.53;5017171;28;20715;-68
2023/05/24 03:58:38;;;;;;;2.87;1.90;;;12.10;99.90;;;12.37;70.22;101106.97;5016220;28;20637;-66
2023/05/24 04:01:08;;;;;;;2.83;2.33;;;12.10;99.90;;;12.40;69.95;101107.59;5030574;28;20584;-68
2023/05/24 04:03:40;;;;;;;2.33;1.67;;;12.20;99.90;;;12.38;69.33;101104.25;5014113;28;20616;-67
2023/05/24 04:06:07;;;;;;;2.03;1.90;;;12.20;99.90;;;12.43;68.92;101114.38;5016759;28;20674;-71
2023/05/24 04:08:34;;;;;;;2.70;1.77;;;12.20;99.90;;;12.49;68.82;101106.09;5029421;28;20592;-68
2023/05/24 04:11:01;;;;;;;3.17;2.17;;;12.30;99.90;;;12.51;69.18;101109.44;5029181;28;20732;-66
2023/05/24 04:13:28;;;;;;;4.67;2.40;;;12.30;99.90;;;12.47;68.86;101110.59;5010247;28;20703;-67
2023/05/24 04:15:55;;;;;;;2.67;1.77;;;12.30;99.90;;;12.51;68.54;101113.81;5041397;28;20666;-69
2023/05/24 04:18:22;;;;;;;2.40;1.77;;;12.30;99.90;;;12.50;68.80;101115.59;5044379;28;21038;-66
2023/05/24 04:20:49;;;;;;;2.80;1.83;;;12.30;99.90;;;12.49;68.70;101121.78;5023977;28;20645;-67
2023/05/24 04:23:16;;;;;;;2.97;2.00;;;12.30;99.90;;;12.46;69.29;101114.16;5011778;28;21036;-64
2023/05/24 04:25:44;;;;;;;1.83;1.50;;;12.30;99.90;;;12.39;69.21;101112.94;5010830;28;20625;-67
2023/05/24 04:28:11;;;;;;;1.63;1.53;;;12.20;99.90;;;12.41;69.63;101119.72;5011651;28;21238;-70
2023/05/24 04:30:38;;;;;;;3.80;2.10;;;12.20;99.90;;;12.37;69.44;101107.78;5025496;28;20656;-68
2023/05/24 04:33:05;;;;;;;2.37;1.43;;;12.20;99.90;;;12.38;69.28;101113.88;5026801;28;20672;-67
2023/05/24 04:35:32;;;;;;;5.20;1.50;;;12.20;99.90;;;12.44;69.69;101114.25;5030894;28;20585;-69
2023/05/24 04:37:59;;;;;;;3.23;1.90;;;12.20;99.90;;;12.45;69.64;101120.34;5028721;28;20687;-69
2023/05/24 04:40:26;;;;;;;2.73;2.10;;;12.20;99.90;;;12.48;68.59;101116.69;5028595;28;21114;-65
2023/05/24 04:42:53;;;;;;;3.10;1.80;;;12.30;99.90;;;12.40;68.66;101120.66;5011895;28;21092;-65
2023/05/24 04:45:22;;;;;;;4.50;1.93;;;12.20;99.90;;;12.35;69.37;101114.09;5012508;28;20630;-69
2023/05/24 04:47:49;;;;;;;2.73;2.00;;;12.10;99.90;;;12.33;69.25;101115.97;5019209;28;20711;-65
2023/05/24 04:50:16;;;;;;;3.57;2.13;;;12.10;99.90;;;12.34;68.76;101120.28;5010346;28;21243;-67
2023/05/24 04:52:43;;;;;;;2.77;1.80;;;12.10;99.90;;;12.30;69.02;101124.91;5009097;28;20668;-65
2023/05/24 04:55:10;;;;;;;2.23;1.80;;;12.10;99.90;;;12.26;69.65;101123.44;5018232;28;20660;-70
2023/05/24 04:57:36;;;;;;;2.13;1.80;;;12.10;99.90;;;12.30;69.53;101119.66;5018009;28;20630;-67
2023/05/24 05:00:06;;;;;;;1.57;1.47;;;12.10;99.90;;;12.41;68.51;101127.56;5027551;28;20652;-65
2023/05/24 05:02:33;;;;;;;4.00;2.07;;;12.20;99.90;;;12.55;68.65;101131.81;5010540;28;20641;-67
2023/05/24 05:05:00;;;;;;;1.73;1.30;;;12.30;99.90;;;12.90;67.21;101131.88;5028072;28;20671;-66
2023/05/24 05:07:27;;;;;;;3.00;1.67;;;12.60;99.90;;;13.25;66.79;101132.72;5017723;28;20676;-68
2023/05/24 05:09:54;;;;;;;4.77;2.00;;;12.90;99.90;;;13.67;65.50;101126.84;5027902;28;20679;-66
2023/05/24 05:12:21;;;;;;;1.80;1.60;;;13.30;99.90;;;13.97;63.60;101131.50;5025913;28;20661;-65
2023/05/24 05:14:49;;;;;;;4.03;1.70;;;13.60;99.90;;;14.29;62.48;101129.03;5031715;28;21261;-70
2023/05/24 05:17:16;;;;;;;3.00;1.00;;;14.00;99.90;;;14.28;62.08;101143.06;5029325;28;21213;-68
2023/05/24 05:19:43;;;;;;;1.87;1.20;;;14.10;99.90;;;14.16;62.23;101154.53;5036327;28;21266;-67
2023/05/24 05:22:10;;;;;;;2.00;1.67;;;13.90;99.90;;;14.12;62.82;101150.47;5037270;28;20632;-67
2023/05/24 05:24:37;;;;;;;1.90;1.70;;;13.90;99.90;;;14.30;61.50;101149.88;5033318;28;20686;-67
2023/05/24 05:27:05;;;;;;;2.77;1.53;;;14.10;99.90;;;14.47;61.08;101154.63;5035364;28;20977;-67
2023/05/24 05:29:32;;;;;;;2.40;1.50;;;14.20;99.90;;;14.64;60.69;101154.13;5026369;28;20664;-67
2023/05/24 05:31:59;;;;;;;1.73;1.40;;;14.40;99.90;;;14.61;60.17;101154.34;5036100;28;20683;-68
2023/05/24 05:34:26;;;;;;;1.80;1.20;;;14.40;99.90;;;14.85;59.70;101151.53;5034614;28;20774;-67
2023/05/24 05:36:53;;;;;;;2.03;1.90;;;14.60;99.90;;;15.00;59.91;101150.28;5018871;28;20701;-73
2023/05/24 05:39:20;;;;;;;5.00;1.47;;;14.70;99.90;;;15.18;58.66;101161.09;5021844;28;20692;-67
2023/05/24 05:41:47;;;;;;;2.00;1.60;;;14.90;99.90;;;15.29;57.07;101158.41;5016255;28;20681;-71
2023/05/24 05:44:14;;;;;;;1.90;1.50;;;15.10;99.90;;;15.56;56.30;101157.91;5021294;28;20644;-67
2023/05/24 05:46:44;;;;;;;3.97;2.00;;;15.30;99.90;;;15.69;55.16;101158.53;5025652;28;20666;-70
2023/05/24 05:49:14;;;;;;;1.30;1.10;;;15.40;99.90;;;15.93;54.30;101157.28;5026257;28;20688;-68
2023/05/24 05:51:41;;;;;;;1.57;1.47;;;15.60;99.90;;;16.05;54.39;101171.19;5029558;28;21171;-64
2023/05/24 05:54:13;;;;;;;1.70;1.60;;;15.80;99.90;;;15.97;53.40;101160.50;5028240;28;20625;-69
2023/05/24 05:56:44;;;;;;;1.80;1.50;;;15.80;99.90;;;15.92;53.20;101165.31;5031298;28;20639;-68
2023/05/24 05:59:11;;;;;;;2.10;1.37;;;15.70;99.90;;;16.15;53.00;101156.25;5029316;28;21517;-69
2023/05/24 06:01:40;;;;;;;5.80;1.37;;;15.90;99.90;;;16.53;51.92;101166.94;5033820;28;20628;-67
2023/05/24 06:04:07;;;;;;;1.03;0.87;;;16.20;99.90;;;16.86;50.63;101168.38;5031221;28;20676;-66
2023/05/24 06:06:34;;;;;;;3.23;2.10;;;16.50;99.70;;;17.31;49.82;101169.50;5042509;28;22178;-70
2023/05/24 06:09:01;;;;;;;7.73;1.70;;;17.00;99.10;;;17.71;49.53;101161.38;5035003;28;20643;-67
2023/05/24 06:11:28;;;;;;;2.97;1.73;;;17.30;98.50;;;18.07;48.11;101151.81;5034976;28;20635;-68
2023/05/24 06:13:55;;;;;;;2.97;2.17;;;17.70;97.40;;;17.96;47.62;101152.81;5027763;28;20768;-67
2023/05/24 06:16:22;;;;;;;1.87;1.30;;;17.80;96.50;;;18.13;47.21;101165.25;5026092;28;21075;-71
2023/05/24 06:18:49;;;;;;;1.50;1.37;;;17.80;96.10;;;18.64;45.84;101171.81;5022024;28;20662;-67
2023/05/24 06:21:31;;;;;;;1.70;1.40;;;18.20;95.30;;;19.00;44.75;101174.34;5017139;28;20633;-69
2023/05/24 06:24:01;;;;;;;3.30;1.43;;;18.70;93.70;;;19.02;44.32;101175.03;5030818;28;20663;-67
2023/05/24 06:26:28;;;;;;;1.00;0.90;;;18.80;93.00;;;19.08;43.91;101181.53;5032164;28;21163;-69
2023/05/24 06:28:56;;;;;;;2.50;1.10;;;18.90;92.20;;;19.52;43.34;101177.13;5025123;28;20664;-69
2023/05/24 06:31:23;;;;;;;2.70;1.50;;;19.20;91.60;;;20.01;42.77;101177.28;5031252;28;20613;-68
2023/05/24 06:33:50;;;;;;;1.57;1.27;;;19.70;91.20;;;20.51;41.63;101180.00;5019407;28;21346;-70
2023/05/24 06:36:32;;;;;;;5.70;1.53;;;20.20;90.20;;;21.13;40.17;101175.16;5032531;28;20596;-66
2023/05/24 06:39:00;;;;;;;1.53;1.43;;;20.80;87.50;;;21.56;39.75;101180.13;5011254;28;20659;-67
2023/05/24 06:41:27;;;;;;;1.80;1.63;;;21.30;85.50;;;21.81;39.12;101189.72;5013334;28;20673;-67
2023/05/24 06:43:54;;;;;;;2.03;1.50;;;21.60;83.20;;;22.03;37.64;101189.03;5010762;28;20641;-64
2023/05/24 06:46:21;;;;;;;1.77;1.67;;;21.80;80.50;;;22.30;37.28;101182.44;5026442;28;20657;-70
2023/05/24 06:48:48;;;;;;;4.40;1.80;;;22.10;78.60;;;22.36;37.59;101187.91;5016733;28;20727;-67
2023/05/24 06:51:15;;;;;;;2.30;1.43;;;22.20;78.20;;;22.56;37.16;101185.66;5036140;28;21206;-67
2023/05/24 06:53:42;;;;;;;1.90;1.37;;;22.30;76.80;;;22.76;36.54;101188.72;5033899;28;20665;-66
2023/05/24 06:56:09;;;;;;;1.90;1.47;;;22.50;75.60;;;23.33;35.87;101192.66;5024804;28;20682;-69
2023/05/24 06:58:36;;;;;;;2.13;1.83;;;23.00;73.80;;;23.49;35.13;101186.38;5008614;28;20629;-67
2023/05/24 07:01:03;;;;;;;1.30;1.20;;;23.20;71.90;;;23.70;34.47;101199.84;5022956;28;20660;-65
2023/05/24 07:03:31;;;;;;;3.63;1.63;;;23.50;70.20;;;23.78;33.58;101189.94;5023119;28;20652;-69
2023/05/24 07:05:58;;;;;;;1.77;1.50;;;23.70;68.60;;;24.33;33.77;101186.81;5021843;28;20606;-67
2023/05/24 07:08:25;;;;;;;1.47;1.37;;;24.10;67.60;;;24.60;32.55;101195.94;5011981;28;21015;-70
2023/05/24 07:10:53;;;;;;;1.23;1.20;;;24.40;66.40;;;25.11;31.99;101218.09;5024126;28;20703;-67
2023/05/24 07:13:20;;;;;;;1.80;1.27;;;25.00;64.30;;;25.58;31.10;101210.34;5012105;28;20752;-68
2023/05/24 07:15:48;;;;;;;2.20;1.53;;;25.40;63.00;;;25.50;30.69;101207.81;5022972;28;20605;-67
2023/05/24 07:18:15;;;;;;;1.30;1.07;;;25.50;61.30;;;25.58;30.73;101207.66;5029485;28;20660;-67
2023/05/24 07:20:42;;;;;;;2.20;1.53;;;25.50;61.20;;;25.76;30.84;101202.69;5021730;28;20656;-67
2023/05/24 07:23:10;;;;;;;1.67;1.10;;;25.60;60.80;;;26.09;30.97;101208.25;5021525;28;20637;-69
2023/05/24 07:25:37;;;;;;;1.43;1.13;;;25.90;60.00;;;25.30;30.74;101212.13;5032129;28;21085;-68
2023/05/24 07:28:04;;;;;;;2.50;1.20;;;25.30;59.00;;;25.13;30.90;101211.53;5044688;28;20697;-67
2023/05/24 07:30:31;;;;;;;1.27;1.17;;;25.10;59.30;;;25.55;30.62;101213.41;5037437;28;20664;-70
2023/05/24 07:33:05;;;;;;;3.07;1.40;;;25.40;59.30;;;25.91;30.49;101206.06;5051343;28;20655;-68
2023/05/24 07:35:32;;;;;;;1.83;1.60;;;25.80;58.80;;;25.62;30.44;101206.25;5037759;28;20632;-68
2023/05/24 07:37:59;;;;;;;2.30;1.30;;;25.70;58.10;;;26.07;30.57;101210.25;5030682;28;20605;-67
2023/05/24 07:40:26;;;;;;;4.43;1.77;;;26.00;58.20;;;26.64;29.27;101200.06;5016854;28;20644;-72
2023/05/24 07:42:53;;;;;;;1.07;0.97;;;26.60;56.70;;;26.96;28.61;101198.50;5024510;28;20643;-67
2023/05/24 07:45:20;;;;;;;1.53;1.50;;;27.00;55.80;;;26.97;28.96;101202.03;5016281;28;20683;-69
2023/05/24 07:47:47;;;;;;;2.50;1.27;;;27.10;55.40;;;27.24;28.42;101203.69;5019897;28;20636;-67
2023/05/24 07:50:14;;;;;;;3.73;1.33;;;27.40;54.60;;;27.34;27.45;101204.97;5029580;28;20718;-69
2023/05/24 07:52:41;;;;;;;1.53;1.23;;;27.60;52.80;;;27.37;27.89;101201.91;5023423;28;20696;-67
2023/05/24 07:55:08;;;;;;;1.87;1.40;;;27.60;53.30;;;27.25;28.09;101200.84;5012712;28;20630;-67
2023/05/24 07:57:35;;;;;;;4.23;1.87;;;27.50;53.70;;;27.06;28.58;101198.13;5008625;28;20641;-68
2023/05/24 08:00:09;;;;;;;1.53;1.03;;;27.30;53.70;;;27.39;28.58;101204.38;5014035;28;20756;-68
2023/05/24 08:02:36;;;;;;;1.40;1.27;;;27.50;53.90;;;27.36;27.90;101200.25;5019593;28;20633;-68
2023/05/24 08:05:04;;;;;;;3.53;1.50;;;27.70;53.10;;;27.65;27.79;101204.38;5017300;28;20999;-67
2023/05/24 08:07:31;;;;;;;2.73;1.80;;;27.90;52.50;;;28.39;27.50;101191.41;5020470;28;20699;-68
2023/05/24 08:09:58;;;;;;;1.43;1.23;;;28.50;52.60;;;28.75;27.03;101197.03;5021613;28;21151;-67
2023/05/24 08:12:25;;;;;;;1.80;1.50;;;28.90;51.80;;;29.28;26.11;101194.03;5020071;28;20616;-68
2023/05/24 08:14:52;;;;;;;2.13;1.40;;;29.40;51.00;;;28.90;26.20;101211.00;5025494;28;20696;-67
2023/05/24 08:17:19;;;;;;;2.97;1.60;;;29.40;50.00;;;28.49;25.79;101205.22;5014573;28;20668;-68
2023/05/24 08:19:46;;;;;;;6.17;1.37;;;29.00;49.80;;;27.88;26.24;101194.00;5024752;28;20659;-67
2023/05/24 08:22:13;;;;;;;3.60;1.50;;;28.40;49.70;;;28.36;27.07;101195.34;5017200;28;20641;-68
2023/05/24 08:24:40;;;;;;;1.40;1.30;;;28.60;50.40;;;29.33;25.55;101216.53;5021423;28;20643;-66
2023/05/24 08:27:07;;;;;;;1.20;1.10;;;29.50;49.70;;;29.89;25.42;101203.84;5018816;28;20600;-68
2023/05/24 08:29:36;;;;;;;2.23;1.30;;;30.20;49.30;;;30.67;24.11;101216.63;5015064;28;20711;-66
2023/05/24 08:32:08;;;;;;;3.10;1.80;;;30.80;47.90;;;31.07;23.48;101213.16;5030225;28;21224;-67
2023/05/24 08:34:36;;;;;;;3.00;1.80;;;31.40;46.80;;;30.28;24.23;101223.31;5029089;28;20669;-68
2023/05/24 08:37:08;;;;;;;2.77;1.50;;;31.10;46.90;;;30.14;25.54;101211.84;5029409;28;20607;-68
2023/05/24 08:39:35;;;;;;;1.57;1.13;;;30.80;48.00;;;29.81;25.08;101222.94;5011226;28;20665;-69
2023/05/24 08:42:03;;;;;;;1.83;1.10;;;30.50;47.10;;;30.49;24.23;101220.19;5009729;28;20955;-67
2023/05/24 08:44:46;;;;;;;1.50;1.40;;;30.90;46.90;;;30.76;23.73;101216.06;5008897;28;20628;-67
2023/05/24 08:47:14;;;;;;;2.50;1.10;;;31.10;46.20;;;29.84;24.17;101227.06;5017150;28;21004;-68
2023/05/24 08:49:42;;;;;;;1.67;1.57;;;30.40;46.20;;;29.90;24.04;101243.16;5010868;28;20653;-68
2023/05/24 08:52:10;;;;;;;2.43;1.70;;;30.40;46.30;;;29.94;23.44;101219.34;5012385;28;20641;-69
2023/05/24 08:54:39;;;;;;;1.97;1.80;;;30.40;45.50;;;30.83;23.47;101211.44;5028141;28;20762;-67
2023/05/24 08:57:06;;;;;;;3.13;1.80;;;30.90;45.60;;;31.07;23.13;101217.75;5026812;28;20624;-69
2023/05/24 08:59:33;;;;;;;2.70;1.63;;;31.30;45.00;;;31.51;22.78;101222.66;5027051;28;20636;-67
2023/05/24 09:02:01;;;;;;;1.77;1.30;;;31.80;44.60;;;31.14;22.86;101229.22;5006084;28;20711;-69
2023/05/24 09:04:29;;;;;;;3.90;1.63;;;31.50;44.60;;;31.58;22.63;101228.78;5007682;28;21487;-68
2023/05/24 09:06:57;;;;;;;2.33;1.40;;;31.80;44.40;;;31.96;21.51;101225.63;5016479;28;20625;-67
2023/05/24 09:09:27;;;;;;;2.70;1.47;;;32.30;43.50;;;30.94;22.27;101215.25;5021478;28;20657;-67
2023/05/24 09:11:58;;;;;;;1.67;1.57;;;31.70;43.10;;;31.79;21.96;101227.38;5023693;28;20723;-67
2023/05/24 09:14:25;;;;;;;3.30;1.87;;;32.10;43.50;;;31.41;21.80;101230.50;5012888;28;21090;-68
2023/05/24 09:16:53;;;;;;;1.33;1.27;;;32.00;43.00;;;31.43;22.13;101224.88;5030790;28;20651;-72
2023/05/24 09:19:20;;;;;;;2.00;1.80;;;31.80;43.20;;;30.85;22.37;101225.50;5035180;28;20636;-71
2023/05/24 09:21:48;;;;;;;2.20;1.77;;;31.40;43.20;;;30.64;22.66;101234.88;5019149;28;20636;-68
2023/05/24 09:24:15;;;;;;;7.73;6.10;;;31.10;43.80;;;30.97;22.47;101218.28;5028163;28;20658;-67
2023/05/24 09:26:42;;;;;;;1.97;1.77;;;31.20;43.70;;;30.71;22.39;101215.94;5016074;28;21028;-69
2023/05/24 09:29:09;;;;;;;2.60;0.90;;;31.10;43.00;;;31.37;22.18;101213.09;5014190;28;20670;-69
2023/05/24 09:31:38;;;;;;;1.87;1.30;;;31.60;43.10;;;31.00;22.30;101203.53;5026942;28;20647;-73
2023/05/24 09:34:12;;;;;;;1.43;1.30;;;31.50;43.00;;;31.78;22.21;101201.41;5034985;28;20656;-69
2023/05/24 09:36:41;;;;;;;1.67;1.50;;;32.00;43.10;;;32.44;21.08;101214.47;5020239;28;20642;-69
2023/05/24 09:39:10;;;;;;;2.10;1.57;;;32.80;42.10;;;32.94;20.48;101206.56;5035430;28;20643;-70
2023/05/24 09:41:38;;;;;;;2.90;1.90;;;33.30;41.70;;;32.23;21.58;101220.53;5009822;28;20632;-69
2023/05/24 09:44:05;;;;;;;2.77;2.20;;;32.90;41.80;;;29.96;23.63;101211.84;5016961;28;21279;-68
2023/05/24 09:46:37;;;;;;;2.03;1.63;;;31.20;42.60;;;27.10;26.49;101205.56;5017806;28;20668;-68
2023/05/24 09:49:06;;;;;;;2.50;1.97;;;28.40;44.80;;;25.04;29.86;101187.84;5016513;28;20707;-67
2023/05/24 09:51:39;;;;;;;2.43;1.90;;;26.00;47.70;;;23.51;31.73;101189.69;5010057;28;20641;-68
2023/05/24 09:54:08;;;;;;;2.97;2.13;;;24.10;49.90;;;22.46;33.57;101182.38;5026755;28;21081;-68
2023/05/24 09:56:38;;;;;;;2.60;1.73;;;22.90;52.20;;;22.23;33.90;101176.97;5013174;28;20621;-67
2023/05/24 09:59:07;;;;;;;4.30;2.07;;;22.30;53.30;;;22.12;34.51;101187.19;5024454;28;21424;-68
2023/05/24 10:01:34;;;;;;;2.20;2.00;;;22.10;54.30;;;22.07;34.82;101200.13;5035465;28;20611;-67
2023/05/24 10:04:05;;;;;;;2.17;1.73;;;21.90;54.30;;;22.04;35.36;101203.97;5018365;28;20637;-67
2023/05/24 10:06:37;;;;;;;1.67;1.20;;;21.80;55.20;;;22.84;33.80;101204.63;5029838;28;20737;-67
2023/05/24 10:09:05;;;;;;;7.80;2.17;;;22.40;54.60;;;23.27;33.29;101189.88;5024377;28;20652;-67
2023/05/24 10:11:35;;;;;;;2.13;1.33;;;22.70;54.30;;;23.56;32.42;101203.28;5028333;28;20727;-68
2023/05/24 10:14:07;;;;;;;3.07;2.00;;;22.90;54.00;;;23.61;31.47;101200.91;5030223;28;20668;-70
2023/05/24 10:16:38;;;;;;;2.10;1.57;;;23.00;52.40;;;23.38;31.91;101210.78;5017352;28;20625;-68
2023/05/24 10:19:06;;;;;;;2.40;1.80;;;22.80;52.90;;;23.38;32.64;101213.44;5035893;28;21466;-68